sensor_id;sensor_type;location;lat;lon;timestamp;pressure;altitude;pressure_sealevel;temperature;humidity
39823;BME280;25499;53.958;10.970;2023-02-18T06:48:32;101118.81;;;5.03;100.00
39823;BME280;25499;53.958;10.970;2023-02-18T06:50:58;101113.81;;;5.09;100.00
39823;BME280;25499;53.958;10.970;2023-02-18T06:53:24;101116.53;;;5.15;100.00
39823;BME280;25499;53.958;10.970;2023-02-18T06:58:38;101104.44;;;5.13;100.00
39823;BME280;25499;53.958;10.970;2023-02-18T07:01:03;101112.31;;;5.19;100.00
39823;BME280;25499;53.958;10.970;2023-02-18T07:03:29;101111.66;;;5.28;100.00
39823;BME280;25499;53.958;10.970;2023-02-18T07:05:54;101113.56;;;5.35;100.00
39823;BME280;25499;53.958;10.970;2023-02-18T07:08:20;101107.44;;;5.30;100.00
39823;BME280;25499;53.958;10.970;2023-02-18T07:10:46;101104.88;;;5.31;100.00
39823;BME280;25499;53.958;10.970;2023-02-18T07:13:14;101095.44;;;5.32;100.00
39823;BME280;25499;53.958;10.970;2023-02-18T07:15:39;101099.94;;;5.40;100.00
39823;BME280;25499;53.958;10.970;2023-02-18T07:18:05;101104.91;;;5.33;100.00
39823;BME280;25499;53.958;10.970;2023-02-18T07:20:31;101092.75;;;5.29;100.00
39823;BME280;25499;53.958;10.970;2023-02-18T07:22:56;101099.66;;;5.28;100.00
39823;BME280;25499;53.958;10.970;2023-02-18T07:25:24;101105.91;;;5.39;100.00
39823;BME280;25499;53.958;10.970;2023-02-18T07:27:50;101091.28;;;5.38;100.00
39823;BME280;25499;53.958;10.970;2023-02-18T07:30:16;101096.41;;;5.37;100.00
39823;BME280;25499;53.958;10.970;2023-02-18T07:32:41;101081.91;;;5.42;100.00
39823;BME280;25499;53.958;10.970;2023-02-18T07:35:07;101078.47;;;5.43;100.00
39823;BME280;25499;53.958;10.970;2023-02-18T07:37:33;101090.50;;;5.42;100.00
39823;BME280;25499;53.958;10.970;2023-02-18T07:39:58;101089.66;;;5.42;100.00
39823;BME280;25499;53.958;10.970;2023-02-18T07:42:24;101080.81;;;5.32;100.00
39823;BME280;25499;53.958;10.970;2023-02-18T07:44:49;101080.00;;;5.35;100.00
39823;BME280;25499;53.958;10.970;2023-02-18T07:47:16;101077.47;;;5.36;100.00
39823;BME280;25499;53.958;10.970;2023-02-18T07:49:44;101085.19;;;5.35;100.00
39823;BME280;25499;53.958;10.970;2023-02-18T07:52:11;101082.63;;;5.36;100.00
39823;BME280;25499;53.958;10.970;2023-02-18T07:54:36;101087.81;;;5.36;100.00
39823;BME280;25499;53.958;10.970;2023-02-18T07:57:02;101088.78;;;5.43;100.00
39823;BME280;25499;53.958;10.970;2023-02-18T07:59:27;101080.84;;;5.34;100.00
39823;BME280;25499;53.958;10.970;2023-02-18T08:01:53;101078.25;;;5.34;100.00
39823;BME280;25499;53.958;10.970;2023-02-18T08:04:18;101068.13;;;5.41;100.00
39823;BME280;25499;53.958;10.970;2023-02-18T08:06:45;101064.56;;;5.38;100.00
39823;BME280;25499;53.958;10.970;2023-02-18T08:09:12;101053.50;;;5.42;100.00
39823;BME280;25499;53.958;10.970;2023-02-18T08:11:38;101050.00;;;5.40;100.00
39823;BME280;25499;53.958;10.970;2023-02-18T08:14:04;101042.38;;;5.46;100.00
39823;BME280;25499;53.958;10.970;2023-02-18T08:16:30;101029.47;;;5.46;100.00
39823;BME280;25499;53.958;10.970;2023-02-18T08:18:55;101037.19;;;5.45;100.00
39823;BME280;25499;53.958;10.970;2023-02-18T08:21:23;101037.16;;;5.43;100.00
39823;BME280;25499;53.958;10.970;2023-02-18T08:23:49;101025.09;;;5.42;100.00
39823;BME280;25499;53.958;10.970;2023-02-18T08:26:14;101013.91;;;5.41;100.00
39823;BME280;25499;53.958;10.970;2023-02-18T08:28:40;101020.91;;;5.47;100.00
39823;BME280;25499;53.958;10.970;2023-02-18T08:31:06;101011.59;;;5.54;100.00
39823;BME280;25499;53.958;10.970;2023-02-18T08:33:33;101007.91;;;5.44;100.00
39823;BME280;25499;53.958;10.970;2023-02-18T08:35:58;101011.75;;;5.63;100.00
39823;BME280;25499;53.958;10.970;2023-02-18T08:38:24;101015.81;;;5.50;100.00
39823;BME280;25499;53.958;10.970;2023-02-18T08:40:50;101013.09;;;5.44;100.00
39823;BME280;25499;53.958;10.970;2023-02-18T08:43:24;101010.63;;;5.49;100.00
39823;BME280;25499;53.958;10.970;2023-02-18T08:45:50;101006.38;;;5.52;100.00
39823;BME280;25499;53.958;10.970;2023-02-18T08:48:15;101006.50;;;5.57;100.00
39823;BME280;25499;53.958;10.970;2023-02-18T08:50:41;100994.16;;;5.44;100.00
39823;BME280;25499;53.958;10.970;2023-02-18T08:53:06;100987.47;;;5.53;100.00
39823;BME280;25499;53.958;10.970;2023-02-18T08:55:32;100982.25;;;5.50;100.00
39823;BME280;25499;53.958;10.970;2023-02-18T08:57:59;100976.94;;;5.44;100.00
39823;BME280;25499;53.958;10.970;2023-02-18T09:00:25;100970.91;;;5.44;100.00
39823;BME280;25499;53.958;10.970;2023-02-18T09:02:50;100973.63;;;5.51;100.00
39823;BME280;25499;53.958;10.970;2023-02-18T09:05:16;100966.47;;;5.36;100.00
39823;BME280;25499;53.958;10.970;2023-02-18T09:07:42;100968.47;;;5.51;100.00
39823;BME280;25499;53.958;10.970;2023-02-18T09:10:08;100952.09;;;5.49;100.00
39823;BME280;25499;53.958;10.970;2023-02-18T09:12:34;100945.16;;;5.47;100.00
39823;BME280;25499;53.958;10.970;2023-02-18T09:14:59;100934.66;;;5.39;100.00
39823;BME280;25499;53.958;10.970;2023-02-18T09:17:26;100928.47;;;5.31;100.00
39823;BME280;25499;53.958;10.970;2023-02-18T09:19:52;100924.41;;;5.42;100.00
39823;BME280;25499;53.958;10.970;2023-02-18T09:22:18;100925.16;;;5.38;100.00
39823;BME280;25499;53.958;10.970;2023-02-18T09:24:43;100921.81;;;5.42;100.00
39823;BME280;25499;53.958;10.970;2023-02-18T09:27:09;100916.59;;;5.39;100.00
39823;BME280;25499;53.958;10.970;2023-02-18T09:29:37;100924.44;;;5.44;100.00
39823;BME280;25499;53.958;10.970;2023-02-18T09:32:05;100908.94;;;5.44;100.00
39823;BME280;25499;53.958;10.970;2023-02-18T09:34:31;100902.88;;;5.41;100.00
39823;BME280;25499;53.958;10.970;2023-02-18T09:36:57;100896.03;;;5.44;100.00
39823;BME280;25499;53.958;10.970;2023-02-18T09:39:23;100888.97;;;5.35;100.00
39823;BME280;25499;53.958;10.970;2023-02-18T09:41:51;100894.03;;;5.30;100.00
39823;BME280;25499;53.958;10.970;2023-02-18T09:44:29;100886.34;;;5.32;100.00
39823;BME280;25499;53.958;10.970;2023-02-18T09:49:35;100889.66;;;5.26;100.00
39823;BME280;25499;53.958;10.970;2023-02-18T09:52:29;100888.75;;;5.24;100.00
39823;BME280;25499;53.958;10.970;2023-02-18T09:54:56;100883.50;;;5.19;100.00
39823;BME280;25499;53.958;10.970;2023-02-18T09:57:23;100888.75;;;5.24;100.00
39823;BME280;25499;53.958;10.970;2023-02-18T09:59:58;100889.66;;;5.26;100.00
39823;BME280;25499;53.958;10.970;2023-02-18T10:02:24;100893.94;;;5.26;100.00
39823;BME280;25499;53.958;10.970;2023-02-18T10:04:50;100885.22;;;5.20;100.00
39823;BME280;25499;53.958;10.970;2023-02-18T10:07:30;100883.53;;;5.22;100.00
39823;BME280;25499;53.958;10.970;2023-02-18T10:10:02;100880.06;;;5.20;100.00
39823;BME280;25499;53.958;10.970;2023-02-18T10:12:33;100880.09;;;5.22;100.00
39823;BME280;25499;53.958;10.970;2023-02-18T10:15:00;100869.88;;;5.27;100.00
39823;BME280;25499;53.958;10.970;2023-02-18T10:17:29;100858.56;;;5.20;100.00
39823;BME280;25499;53.958;10.970;2023-02-18T10:19:57;100855.09;;;5.18;100.00
39823;BME280;25499;53.958;10.970;2023-02-18T10:22:24;100837.19;;;5.27;100.00
39823;BME280;25499;53.958;10.970;2023-02-18T10:29:53;100833.88;;;5.34;100.00
39823;BME280;25499;53.958;10.970;2023-02-18T10:32:26;100833.81;;;5.30;100.00
39823;BME280;25499;53.958;10.970;2023-02-18T10:35:05;100825.00;;;5.20;100.00
39823;BME280;25499;53.958;10.970;2023-02-18T10:37:53;100825.78;;;5.16;100.00
39823;BME280;25499;53.958;10.970;2023-02-18T10:43:10;100810.66;;;5.34;100.00
39823;BME280;25499;53.958;10.970;2023-02-18T10:48:39;100803.69;;;5.30;100.00
39823;BME280;25499;53.958;10.970;2023-02-18T10:51:17;100805.44;;;5.31;100.00
39823;BME280;25499;53.958;10.970;2023-02-18T10:53:44;100808.94;;;5.33;100.00
39823;BME280;25499;53.958;10.970;2023-02-18T10:56:41;100791.66;;;5.31;100.00
39823;BME280;25499;53.958;10.970;2023-02-18T11:01:40;100777.06;;;5.31;100.00
39823;BME280;25499;53.958;10.970;2023-02-18T11:04:17;100769.06;;;5.19;100.00
39823;BME280;25499;53.958;10.970;2023-02-18T11:06:49;100761.41;;;5.23;100.00
39823;BME280;25499;53.958;10.970;2023-02-18T11:09:38;100756.38;;;5.30;100.00
39823;BME280;25499;53.958;10.970;2023-02-18T11:12:13;100752.94;;;5.31;100.00
39823;BME280;25499;53.958;10.970;2023-02-18T11:14:45;100758.13;;;5.32;100.00
39823;BME280;25499;53.958;10.970;2023-02-18T11:17:27;100760.44;;;5.17;100.00
39823;BME280;25499;53.958;10.970;2023-02-18T11:20:00;100764.72;;;5.16;100.00
39823;BME280;25499;53.958;10.970;2023-02-18T11:22:31;100767.31;;;5.16;100.00
39823;BME280;25499;53.958;10.970;2023-02-18T11:25:00;100757.66;;;5.06;100.00
39823;BME280;25499;53.958;10.970;2023-02-18T11:27:43;100759.31;;;5.04;100.00
39823;BME280;25499;53.958;10.970;2023-02-18T11:30:36;100767.03;;;5.04;100.00
39823;BME280;25499;53.958;10.970;2023-02-18T11:33:24;100760.19;;;5.04;100.00
39823;BME280;25499;53.958;10.970;2023-02-18T11:35:55;100739.66;;;5.11;100.00
39823;BME280;25499;53.958;10.970;2023-02-18T11:38:34;100742.22;;;5.11;100.00
39823;BME280;25499;53.958;10.970;2023-02-18T11:41:13;100723.66;;;5.29;100.00
39823;BME280;25499;53.958;10.970;2023-02-18T11:43:42;100719.97;;;5.16;100.00
39823;BME280;25499;53.958;10.970;2023-02-18T11:46:19;100725.00;;;5.08;100.00
39823;BME280;25499;53.958;10.970;2023-02-18T11:48:46;100714.69;;;5.08;100.00
39823;BME280;25499;53.958;10.970;2023-02-18T11:51:30;100708.69;;;5.09;100.00
39823;BME280;25499;53.958;10.970;2023-02-18T11:56:26;100701.22;;;5.25;100.00
39823;BME280;25499;53.958;10.970;2023-02-18T11:58:53;100704.91;;;5.39;100.00
39823;BME280;25499;53.958;10.970;2023-02-18T12:04:36;100690.56;;;5.06;100.00
39823;BME280;25499;53.958;10.970;2023-02-18T12:09:34;100707.16;;;5.20;100.00
39823;BME280;25499;53.958;10.970;2023-02-18T12:12:05;100718.56;;;5.32;100.00
39823;BME280;25499;53.958;10.970;2023-02-18T12:14:34;100730.66;;;5.36;100.00
39823;BME280;25499;53.958;10.970;2023-02-18T12:20:25;100735.78;;;5.34;100.00
39823;BME280;25499;53.958;10.970;2023-02-18T12:23:04;100741.88;;;5.38;100.00
39823;BME280;25499;53.958;10.970;2023-02-18T12:28:50;100744.28;;;5.29;100.00
39823;BME280;25499;53.958;10.970;2023-02-18T12:32:06;100754.44;;;5.18;100.00
39823;BME280;25499;53.958;10.970;2023-02-18T12:39:48;100780.75;;;5.00;100.00
39823;BME280;25499;53.958;10.970;2023-02-18T12:42:45;100791.91;;;5.00;100.00
39823;BME280;25499;53.958;10.970;2023-02-18T12:45:55;100795.13;;;4.89;100.00
39823;BME280;25499;53.958;10.970;2023-02-18T12:51:39;100780.41;;;4.83;100.00
39823;BME280;25499;53.958;10.970;2023-02-18T13:02:08;100671.03;;;4.30;100.00
39823;BME280;25499;53.958;10.970;2023-02-18T13:10:19;100750.75;;;4.23;100.00
39823;BME280;25499;53.958;10.970;2023-02-18T13:13:17;100774.09;;;4.30;100.00
39823;BME280;25499;53.958;10.970;2023-02-18T13:15:57;100782.66;;;4.28;100.00
39823;BME280;25499;53.958;10.970;2023-02-18T13:18:27;100772.31;;;4.26;100.00
39823;BME280;25499;53.958;10.970;2023-02-18T13:20:58;100775.94;;;4.35;100.00
39823;BME280;25499;53.958;10.970;2023-02-18T13:23:27;100775.94;;;4.35;100.00
39823;BME280;25499;53.958;10.970;2023-02-18T13:26:01;100770.91;;;4.41;100.00
39823;BME280;25499;53.958;10.970;2023-02-18T13:28:42;100783.81;;;4.42;100.00
39823;BME280;25499;53.958;10.970;2023-02-18T13:34:06;100800.22;;;4.46;100.00
39823;BME280;25499;53.958;10.970;2023-02-18T13:36:46;100809.72;;;4.47;100.00
39823;BME280;25499;53.958;10.970;2023-02-18T13:39:16;100810.56;;;4.47;100.00
39823;BME280;25499;53.958;10.970;2023-02-18T13:41:46;100815.84;;;4.52;100.00
39823;BME280;25499;53.958;10.970;2023-02-18T13:46:52;100814.00;;;4.46;100.00
39823;BME280;25499;53.958;10.970;2023-02-18T13:51:50;100793.47;;;4.51;100.00
39823;BME280;25499;53.958;10.970;2023-02-18T13:54:28;100793.38;;;4.46;100.00
39823;BME280;25499;53.958;10.970;2023-02-18T13:57:01;100795.31;;;4.57;100.00
39823;BME280;25499;53.958;10.970;2023-02-18T13:59:55;100802.47;;;4.69;100.00
39823;BME280;25499;53.958;10.970;2023-02-18T14:05:20;100835.00;;;4.65;100.00
39823;BME280;25499;53.958;10.970;2023-02-18T14:12:42;100823.56;;;4.52;100.00
39823;BME280;25499;53.958;10.970;2023-02-18T14:18:07;100846.81;;;4.54;100.00
39823;BME280;25499;53.958;10.970;2023-02-18T14:25:51;100874.56;;;4.64;100.00
39823;BME280;25499;53.958;10.970;2023-02-18T14:31:05;100879.84;;;4.70;100.00
39823;BME280;25499;53.958;10.970;2023-02-18T14:36:49;100872.63;;;4.55;100.00
39823;BME280;25499;53.958;10.970;2023-02-18T14:50:50;100855.44;;;4.56;100.00
39823;BME280;25499;53.958;10.970;2023-02-18T14:53:20;100866.59;;;4.55;100.00
39823;BME280;25499;53.958;10.970;2023-02-18T14:55:56;100879.84;;;4.70;100.00
39823;BME280;25499;53.958;10.970;2023-02-18T14:58:28;100892.94;;;4.79;100.00
39823;BME280;25499;53.958;10.970;2023-02-18T15:00:54;100896.78;;;4.59;100.00
39823;BME280;25499;53.958;10.970;2023-02-18T15:03:20;100905.88;;;4.44;100.00
39823;BME280;25499;53.958;10.970;2023-02-18T15:05:48;100914.28;;;4.37;100.00
39823;BME280;25499;53.958;10.970;2023-02-18T15:08:22;100909.31;;;4.43;100.00
39823;BME280;25499;53.958;10.970;2023-02-18T15:11:04;100906.69;;;4.42;100.00
39823;BME280;25499;53.958;10.970;2023-02-18T15:13:33;100894.63;;;4.41;100.00
39823;BME280;25499;53.958;10.970;2023-02-18T15:16:04;100874.72;;;4.35;100.00
39823;BME280;25499;53.958;10.970;2023-02-18T15:18:39;100880.50;;;4.25;100.00
39823;BME280;25499;53.958;10.970;2023-02-18T15:21:07;100891.25;;;4.43;100.00
39823;BME280;25499;53.958;10.970;2023-02-18T15:23:38;100880.22;;;4.49;100.00
39823;BME280;25499;53.958;10.970;2023-02-18T15:26:05;100872.56;;;4.52;100.00
39823;BME280;25499;53.958;10.970;2023-02-18T15:28:34;100882.63;;;4.41;100.00
39823;BME280;25499;53.958;10.970;2023-02-18T15:31:09;100892.44;;;4.21;100.00
39823;BME280;25499;53.958;10.970;2023-02-18T15:33:42;100894.84;;;4.15;100.00
39823;BME280;25499;53.958;10.970;2023-02-18T15:36:13;100896.59;;;4.16;100.00
39823;BME280;25499;53.958;10.970;2023-02-18T15:38:39;100892.31;;;4.17;100.00
39823;BME280;25499;53.958;10.970;2023-02-18T15:41:10;100909.09;;;4.01;100.00
39823;BME280;25499;53.958;10.970;2023-02-18T16:01:27;100973.94;;;3.86;100.00
39823;BME280;25499;53.958;10.970;2023-02-18T16:03:54;100977.38;;;3.86;100.00
39823;BME280;25499;53.958;10.970;2023-02-18T16:11:34;100990.22;;;3.85;100.00
39823;BME280;25499;53.958;10.970;2023-02-18T16:14:02;100985.19;;;3.89;100.00
39823;BME280;25499;53.958;10.970;2023-02-18T16:16:35;100979.56;;;3.72;100.00
39823;BME280;25499;53.958;10.970;2023-02-18T16:19:02;100981.47;;;3.80;100.00
39823;BME280;25499;53.958;10.970;2023-02-18T16:24:24;101003.75;;;3.78;100.00
39823;BME280;25499;53.958;10.970;2023-02-18T16:26:53;101017.38;;;3.73;100.00
39823;BME280;25499;53.958;10.970;2023-02-18T16:29:23;101020.81;;;3.74;100.00
39823;BME280;25499;53.958;10.970;2023-02-18T16:31:49;101019.56;;;3.61;100.00
39823;BME280;25499;53.958;10.970;2023-02-18T16:34:14;101026.53;;;3.64;100.00
39823;BME280;25499;53.958;10.970;2023-02-18T16:36:40;101031.97;;;3.46;100.00
39823;BME280;25499;53.958;10.970;2023-02-18T16:39:28;101028.50;;;3.44;100.00
39823;BME280;25499;53.958;10.970;2023-02-18T16:41:53;101044.78;;;3.44;100.00
39823;BME280;25499;53.958;10.970;2023-02-18T16:44:19;101057.59;;;3.41;100.00
39823;BME280;25499;53.958;10.970;2023-02-18T16:46:44;101056.56;;;3.36;100.00
39823;BME280;25499;53.958;10.970;2023-02-18T16:49:13;101065.97;;;3.35;100.00
39823;BME280;25499;53.958;10.970;2023-02-18T16:51:38;101067.06;;;3.15;100.00
39823;BME280;25499;53.958;10.970;2023-02-18T16:54:09;101070.09;;;3.03;100.00
39823;BME280;25499;53.958;10.970;2023-02-18T16:56:36;101066.72;;;2.78;100.00
39823;BME280;25499;53.958;10.970;2023-02-18T16:59:01;101088.50;;;2.90;100.00
39823;BME280;25499;53.958;10.970;2023-02-18T17:01:36;101090.84;;;2.82;100.00
39823;BME280;25499;53.958;10.970;2023-02-18T17:04:04;101092.47;;;2.80;100.00
39823;BME280;25499;53.958;10.970;2023-02-18T17:06:30;101102.00;;;2.83;100.00
39823;BME280;25499;53.958;10.970;2023-02-18T17:08:56;101095.59;;;2.71;100.00
39823;BME280;25499;53.958;10.970;2023-02-18T17:11:24;101096.28;;;2.66;100.00
39823;BME280;25499;53.958;10.970;2023-02-18T17:13:52;101093.09;;;2.73;100.00
39823;BME280;25499;53.958;10.970;2023-02-18T17:16:19;101091.03;;;2.63;100.00
39823;BME280;25499;53.958;10.970;2023-02-18T17:18:46;101090.91;;;2.59;100.00
39823;BME280;25499;53.958;10.970;2023-02-18T17:21:13;101098.78;;;2.64;100.00
39823;BME280;25499;53.958;10.970;2023-02-18T17:23:40;101095.00;;;2.54;100.00
39823;BME280;25499;53.958;10.970;2023-02-18T17:26:19;101088.44;;;2.63;100.00
39823;BME280;25499;53.958;10.970;2023-02-18T17:28:45;101089.66;;;2.72;100.00
39823;BME280;25499;53.958;10.970;2023-02-18T17:31:19;101089.19;;;2.58;100.00
39823;BME280;25499;53.958;10.970;2023-02-18T17:33:46;101101.00;;;2.53;100.00
39823;BME280;25499;53.958;10.970;2023-02-18T17:36:11;101102.97;;;2.36;100.00
39823;BME280;25499;53.958;10.970;2023-02-18T17:38:38;101109.75;;;2.34;100.00
39823;BME280;25499;53.958;10.970;2023-02-18T17:41:04;101121.22;;;2.44;100.00
39823;BME280;25499;53.958;10.970;2023-02-18T17:43:30;101132.81;;;2.57;100.00
39823;BME280;25499;53.958;10.970;2023-02-18T17:45:57;101128.66;;;2.60;100.00
39823;BME280;25499;53.958;10.970;2023-02-18T17:48:23;101131.75;;;2.76;100.00
39823;BME280;25499;53.958;10.970;2023-02-18T17:50:49;101152.50;;;2.80;100.00
39823;BME280;25499;53.958;10.970;2023-02-18T17:53:16;101150.16;;;2.88;100.00
39823;BME280;25499;53.958;10.970;2023-02-18T17:55:43;101163.97;;;2.90;100.00
39823;BME280;25499;53.958;10.970;2023-02-18T17:58:10;101168.13;;;2.87;100.00
39823;BME280;25499;53.958;10.970;2023-02-18T18:00:38;101179.25;;;2.86;100.00
39823;BME280;25499;53.958;10.970;2023-02-18T18:03:05;101179.34;;;2.89;100.00
39823;BME280;25499;53.958;10.970;2023-02-18T18:05:34;101184.31;;;2.84;100.00
39823;BME280;25499;53.958;10.970;2023-02-18T18:08:02;101199.97;;;2.90;100.00
39823;BME280;25499;53.958;10.970;2023-02-18T18:10:30;101197.53;;;2.95;100.00
39823;BME280;25499;53.958;10.970;2023-02-18T18:12:58;101213.38;;;3.06;100.00
39823;BME280;25499;53.958;10.970;2023-02-18T18:17:49;101211.09;;;3.15;100.00
39823;BME280;25499;53.958;10.970;2023-02-18T18:20:15;101205.22;;;3.17;100.00
39823;BME280;25499;53.958;10.970;2023-02-18T18:22:41;101204.69;;;3.28;100.00
39823;BME280;25499;53.958;10.970;2023-02-18T18:25:17;101196.06;;;3.27;100.00
39823;BME280;25499;53.958;10.970;2023-02-18T18:27:43;101208.47;;;3.39;100.00
39823;BME280;25499;53.958;10.970;2023-02-18T18:30:09;101201.66;;;3.40;100.00
39823;BME280;25499;53.958;10.970;2023-02-18T18:32:34;101208.44;;;3.38;100.00
39823;BME280;25499;53.958;10.970;2023-02-18T18:35:00;101215.03;;;3.29;100.00
39823;BME280;25499;53.958;10.970;2023-02-18T18:37:25;101210.59;;;3.25;100.00
39823;BME280;25499;53.958;10.970;2023-02-18T18:39:52;101216.47;;;3.21;100.00
39823;BME280;25499;53.958;10.970;2023-02-18T18:42:17;101225.22;;;3.26;100.00
39823;BME280;25499;53.958;10.970;2023-02-18T18:44:43;101217.34;;;3.22;100.00
39823;BME280;25499;53.958;10.970;2023-02-18T18:47:08;101223.06;;;3.13;100.00
39823;BME280;25499;53.958;10.970;2023-02-18T18:49:34;101223.16;;;3.16;100.00
39823;BME280;25499;53.958;10.970;2023-02-18T18:51:59;101222.06;;;3.09;100.00
39823;BME280;25499;53.958;10.970;2023-02-18T18:54:24;101225.44;;;3.08;100.00
39823;BME280;25499;53.958;10.970;2023-02-18T18:56:50;101226.94;;;3.02;100.00
39823;BME280;25499;53.958;10.970;2023-02-18T18:59:17;101226.25;;;3.06;100.00
39823;BME280;25499;53.958;10.970;2023-02-18T19:01:42;101230.44;;;3.04;100.00
39823;BME280;25499;53.958;10.970;2023-02-18T19:04:08;101227.72;;;2.99;100.00
39823;BME280;25499;53.958;10.970;2023-02-18T19:06:34;101225.09;;;2.97;100.00
39823;BME280;25499;53.958;10.970;2023-02-18T19:08:59;101230.34;;;3.01;100.00
39823;BME280;25499;53.958;10.970;2023-02-18T19:11:25;101223.56;;;3.03;100.00
39823;BME280;25499;53.958;10.970;2023-02-18T19:13:50;101222.50;;;2.97;100.00
39823;BME280;25499;53.958;10.970;2023-02-18T19:16:19;101219.22;;;3.02;100.00
39823;BME280;25499;53.958;10.970;2023-02-18T19:18:46;101221.66;;;2.98;100.00
39823;BME280;25499;53.958;10.970;2023-02-18T19:21:11;101221.66;;;2.98;100.00
39823;BME280;25499;53.958;10.970;2023-02-18T19:23:37;101212.13;;;2.94;100.00
39823;BME280;25499;53.958;10.970;2023-02-18T19:26:03;101213.91;;;2.97;100.00
39823;BME280;25499;53.958;10.970;2023-02-18T19:28:29;101215.59;;;2.96;100.00
39823;BME280;25499;53.958;10.970;2023-02-18T19:30:55;101218.19;;;2.96;100.00
39823;BME280;25499;53.958;10.970;2023-02-18T19:33:20;101224.41;;;3.03;100.00
39823;BME280;25499;53.958;10.970;2023-02-18T19:35:46;101220.97;;;3.03;100.00
39823;BME280;25499;53.958;10.970;2023-02-18T19:38:14;101223.38;;;2.98;100.00
39823;BME280;25499;53.958;10.970;2023-02-18T19:40:40;101237.44;;;3.08;100.00
39823;BME280;25499;53.958;10.970;2023-02-18T19:43:07;101245.09;;;3.06;100.00
39823;BME280;25499;53.958;10.970;2023-02-18T19:45:33;101239.59;;;2.95;100.00
39823;BME280;25499;53.958;10.970;2023-02-18T19:47:59;101245.78;;;3.01;100.00
39823;BME280;25499;53.958;10.970;2023-02-18T19:50:26;101243.28;;;3.04;100.00
39823;BME280;25499;53.958;10.970;2023-02-18T19:52:54;101244.56;;;2.91;100.00
39823;BME280;25499;53.958;10.970;2023-02-18T19:55:20;101245.66;;;2.97;100.00
39823;BME280;25499;53.958;10.970;2023-02-18T19:57:47;101251.50;;;2.93;100.00
39823;BME280;25499;53.958;10.970;2023-02-18T20:00:14;101249.88;;;2.95;100.00
39823;BME280;25499;53.958;10.970;2023-02-18T20:02:40;101254.66;;;2.86;100.00
39823;BME280;25499;53.958;10.970;2023-02-18T20:05:08;101260.84;;;2.91;100.00
39823;BME280;25499;53.958;10.970;2023-02-18T20:07:33;101263.09;;;2.82;100.00
39823;BME280;25499;53.958;10.970;2023-02-18T20:10:00;101270.97;;;2.87;100.00
39823;BME280;25499;53.958;10.970;2023-02-18T20:12:25;101270.97;;;2.87;100.00
39823;BME280;25499;53.958;10.970;2023-02-18T20:14:51;101267.53;;;2.86;100.00
39823;BME280;25499;53.958;10.970;2023-02-18T20:17:17;101271.94;;;2.89;100.00
39823;BME280;25499;53.958;10.970;2023-02-18T20:19:43;101277.38;;;2.98;100.00
39823;BME280;25499;53.958;10.970;2023-02-18T20:22:08;101276.53;;;2.97;100.00
39823;BME280;25499;53.958;10.970;2023-02-18T20:24:37;101276.28;;;2.91;100.00
39823;BME280;25499;53.958;10.970;2023-02-18T20:27:04;101268.44;;;2.88;100.00
39823;BME280;25499;53.958;10.970;2023-02-18T20:29:30;101266.47;;;2.81;100.00
39823;BME280;25499;53.958;10.970;2023-02-18T20:31:58;101261.34;;;2.81;100.00
39823;BME280;25499;53.958;10.970;2023-02-18T20:34:24;101261.22;;;2.78;100.00
39823;BME280;25499;53.958;10.970;2023-02-18T20:36:50;101264.50;;;2.74;100.00
39823;BME280;25499;53.958;10.970;2023-02-18T20:39:17;101270.81;;;2.82;100.00
39823;BME280;25499;53.958;10.970;2023-02-18T20:41:43;101276.66;;;2.78;100.00
39823;BME280;25499;53.958;10.970;2023-02-18T20:44:09;101269.41;;;2.68;100.00
39823;BME280;25499;53.958;10.970;2023-02-18T20:46:36;101278.78;;;2.66;100.00
39823;BME280;25499;53.958;10.970;2023-02-18T20:49:04;101275.41;;;2.67;100.00
39823;BME280;25499;53.958;10.970;2023-02-18T20:51:31;101275.47;;;2.70;100.00
39823;BME280;25499;53.958;10.970;2023-02-18T20:53:57;101278.28;;;2.76;100.00
39823;BME280;25499;53.958;10.970;2023-02-18T20:56:22;101273.75;;;2.69;100.00
39823;BME280;25499;53.958;10.970;2023-02-18T20:58:48;101275.47;;;2.70;100.00
39823;BME280;25499;53.958;10.970;2023-02-18T21:01:15;101272.06;;;2.69;100.00
39823;BME280;25499;53.958;10.970;2023-02-18T21:03:41;101286.66;;;2.70;100.00
